Ludlam, Florida
Current Conditions -  °F | °C
As of 2:53 AM on Tuesday 21 Oct 2014 (Local Time) from KMIA Reporting Station
Overcast Overcast  
Wind Chill: 76°   Ceiling: 10000
Heat Index: 76°   Visibility: 10mi
Dew Point: 71°   Wind: 0mph
Humidity: 85%   Direction: NA
Pressure: 29.93"   Gusts: NA
Location:  25.7539°N, 80.2512°W
Report Text: KMIA 210653Z 00000KT 10SM SCT055 BKN100 OVC200 24/22 A2993 RMK AO2 SLP135 T02440217
Loading
Personal Weather Stations






























Interactive Weather Map
Tropical Storm Tracking
New forecast layout! Learn more

10-Day Weather Forecast

Advertisements
Track Severe Weather on mobile